• Join FlightAware (Why Join?)
  • Login
  • US Flag 
05:47AM EST


 

Airport Tracker/Info


-or-


 

Live Flight TrackerFlight Track Log ✈ EGF4328 ✈ 27-Jul-2012 ✈ KORD - KLIT

Flight Track Log - Related Links

Times and Time Zones

All times are in EDT time to prevent confusion due to time zone crossing. See the EGF4328 flight status page for this flight to view local times or setup timezone preferences in your user account.

Time Position Orientation Groundspeed Altitude Reporting Facility
EDT Latitude Longitude Course Direction KTS MPH feet Rate Location/Type
02:37PM 41.8829 -87.9167 360° North  Level FlightAware Approximate
02:37PM 41.9000 -87.9167 166° South 208 239 2,900  Level Chicago TRACON
02:38PM 41.8500 -87.9000 188° South 249 287 4,400 1,380 Climbing Chicago TRACON
02:39PM 41.7975 -87.9100 194° South 274 315 5,100 2,100 Climbing Chicago Center
02:40PM 41.7331 -87.9308 193° South 267 307 7,700 2,100 Climbing Chicago Center
02:41PM 41.6583 -87.9547 194° South 261 300 9,300 1,800 Climbing Chicago Center
02:42PM 41.5753 -87.9814 194° South 279 321 11,300 1,800 Climbing Chicago Center
02:43PM 41.4922 -88.0081 191° South 300 345 13,000 2,100 Climbing Chicago Center
02:44PM 41.4111 -88.0292 196° South 300 345 15,500 1,560 Climbing Chicago Center
02:45PM 41.3261 -88.0614 194° South 306 352 16,200 600 Climbing Chicago Center
02:46PM 41.2347 -88.0908 193° South 327 376 16,800 720 Climbing Chicago Center
02:47PM 41.1369 -88.1203 192° South 347 399 17,700 960 Climbing Chicago Center
02:48PM 41.0350 -88.1497 206° Southwest 370 426 18,800 960 Climbing Chicago Center
02:49PM 40.9419 -88.2092 206° Southwest 376 433 19,700 900 Climbing Chicago Center
02:50PM 40.8467 -88.2711 207° Southwest 381 438 20,700 960 Climbing Chicago Center
02:51PM 40.7492 -88.3358 209° Southwest 381 438 21,700 960 Climbing Chicago Center
02:52PM 40.6519 -88.4058 209° Southwest 392 451 22,700 960 Climbing Chicago Center
02:53PM 40.5564 -88.4756 206° Southwest 392 451 23,700 840 Climbing Chicago Center
02:54PM 40.4778 -88.5256 209° Southwest 392 451 24,400 900 Climbing Chicago Center
02:55PM 40.2886 -88.6608 208° Southwest 398 458 26,300 1,020 Climbing Kansas City Center
02:56PM 40.1919 -88.7286 207° Southwest 398 458 27,300 900 Climbing Kansas City Center
02:57PM 40.0950 -88.7936 209° Southwest 398 458 28,200 900 Climbing Kansas City Center
02:58PM 39.9961 -88.8639 207° Southwest 398 458 29,200 900 Climbing Kansas City Center
03:00PM 39.8042 -88.9925 209° Southwest 393 452 31,000 600 Climbing Kansas City Center
03:01PM 39.7033 -89.0650 208° Southwest 398 458 31,000  Level Kansas City Center
03:02PM 39.6003 -89.1347 207° Southwest 404 465 31,000  Level Kansas City Center
03:03PM 39.4950 -89.2044 208° Southwest 418 481 31,000 480 Level Kansas City Center
03:05PM 39.2806 -89.3544 207° Southwest 443 510 32,500 780 Climbing Kansas City Center
03:06PM 39.1789 -89.4206 208° Southwest 427 491 33,500 720 Climbing Kansas City Center
03:07PM 39.0797 -89.4892 208° Southwest 417 480 34,000 300 Climbing Kansas City Center
03:08PM 38.9744 -89.5606 206° Southwest 425 489 34,100 600 Climbing Kansas City Center
03:09PM 38.8767 -89.6231 209° Southwest 420 483 35,300 900 Climbing Kansas City Center
03:10PM 38.7794 -89.6908 208° Southwest 407 468 36,000 300 Climbing Kansas City Center
03:11PM 38.6842 -89.7556 206° Southwest 396 456 36,000  Level Kansas City Center
03:12PM 38.5864 -89.8178 207° Southwest 415 478 36,000  Level Kansas City Center
03:13PM 38.4725 -89.8911 208° Southwest 423 487 36,000  Level Kansas City Center
03:14PM 38.3769 -89.9556 208° Southwest 431 496 36,000  Level Kansas City Center
03:15PM 38.2692 -90.0283 207° Southwest 418 481 36,000  Level Kansas City Center
03:16PM 38.1775 -90.0867 207° Southwest 418 481 36,000  Level Kansas City Center
03:17PM 38.0653 -90.1592 207° Southwest 418 481 36,000  Level Kansas City Center
03:18PM 37.9675 -90.2228 208° Southwest 424 488 36,000  Level Kansas City Center
03:21PM 37.7089 -90.3936 205° Southwest 421 484 36,000  Level Memphis Center
03:22PM 37.6069 -90.4536 207° Southwest 414 476 36,000  Level Memphis Center
03:23PM 37.5025 -90.5217 207° Southwest 414 476 36,000  Level Memphis Center
03:24PM 37.4089 -90.5814 206° Southwest 414 476 36,000  Level Memphis Center
03:25PM 37.3044 -90.6464 209° Southwest 414 476 36,000  Level Memphis Center
03:26PM 37.1856 -90.7292 205° Southwest 434 499 36,000  Level Memphis Center
03:27PM 37.0936 -90.7833 207° Southwest 429 494 36,000  Level Memphis Center
03:28PM 36.9725 -90.8606 208° Southwest 435 501 36,000 -120 Level Memphis Center
03:29PM 36.8681 -90.9300 206° Southwest 435 501 35,800 -300 Descending Memphis Center
03:30PM 36.7614 -90.9939 206° Southwest 429 494 35,400 -600 Descending Memphis Center
03:31PM 36.6528 -91.0603 207° Southwest 429 494 34,600 -900 Descending Memphis Center
03:32PM 36.5608 -91.1192 206° Southwest 429 494 33,700 -1,020 Descending Memphis Center
03:33PM 36.4372 -91.1953 206° Southwest 436 502 32,600 -1,080 Descending Memphis Center
03:34PM 36.3264 -91.2611 207° Southwest 436 502 31,600 -1,020 Descending Memphis Center
03:35PM 36.2133 -91.3319 205° Southwest 444 511 30,600 -1,020 Descending Memphis Center
03:36PM 36.1022 -91.3975 206° Southwest 450 518 29,600 -1,020 Descending Memphis Center
03:37PM 35.9847 -91.4678 207° Southwest 455 524 28,600 -960 Descending Memphis Center
03:38PM 35.8883 -91.5281 207° Southwest 449 517 27,700 3,660 Descending Memphis Center
03:39PM 35.7772 -91.5981 207° Southwest 449 517 36,000 4,140 Climbing Memphis Center
03:40PM 35.6639 -91.6678 205° Southwest 454 522 36,000  Level Memphis Center
03:41PM 35.5506 -91.7325 208° Southwest 454 522 36,000 -11,940 Level Memphis Center
03:41PM 35.4644 -91.7897 206° Southwest 419 482 14,600 -13,320 Descending Memphis Center
03:43PM 35.3489 -91.8589 206° Southwest 403 464 10,800 -2,220 Descending Memphis Center
03:44PM 35.2481 -91.9181 195° South 387 445 10,000 -600 Descending Memphis Center
03:45PM 35.1581 -91.9469 196° South 329 379 9,600 -1,080 Descending Memphis Center
03:46PM 35.0742 -91.9758 194° South 306 352 7,900 -1,740 Descending Memphis Center
03:47PM 34.9967 -91.9997 196° South 290 334 6,100 -1,860 Descending Memphis Center
03:48PM 34.9211 -92.0261 196° South 278 320 4,200 -1,440 Descending Memphis Center
03:49PM 34.8583 -92.0478 196° South 263 303 3,400 -900 Descending Memphis Center